createdAt,value
2019-01-20T00:00:10.335Z,43.10
2019-01-20T00:02:38.778Z,52.10
2019-01-20T00:05:10.996Z,44.10
2019-01-20T00:07:39.684Z,50.77
2019-01-20T00:10:11.204Z,57.33
2019-01-20T00:12:39.689Z,90.50
2019-01-20T00:15:11.268Z,58.83
2019-01-20T00:17:39.674Z,45.83
2019-01-20T00:20:09.266Z,60.47
2019-01-20T00:22:37.733Z,44.23
2019-01-20T00:25:08.591Z,50.13
2019-01-20T00:27:37.132Z,43.37
2019-01-20T00:30:17.186Z,46.43
2019-01-20T00:32:45.603Z,46.30
2019-01-20T00:35:14.045Z,44.60
2019-01-20T00:37:42.446Z,50.43
2019-01-20T00:40:15.978Z,39.23
2019-01-20T00:42:45.311Z,42.27
2019-01-20T00:45:18.201Z,42.77
2019-01-20T00:47:47.828Z,48.93
2019-01-20T00:50:17.256Z,44.13
2019-01-20T00:52:45.924Z,47.83
2019-01-20T00:55:16.677Z,46.17
2019-01-20T00:57:45.335Z,52.37
2019-01-20T01:00:25.648Z,51.70
2019-01-20T01:02:54.058Z,43.00
2019-01-20T01:05:23.418Z,48.10
2019-01-20T01:07:52.117Z,43.87
2019-01-20T01:10:20.873Z,53.27
2019-01-20T01:12:50.411Z,41.73
2019-01-20T01:15:19.102Z,42.50
2019-01-20T01:17:47.524Z,44.57
2019-01-20T01:20:18.249Z,48.43
2019-01-20T01:22:47.215Z,59.80
2019-01-20T01:25:16.874Z,57.83
2019-01-20T01:27:45.814Z,92.63
2019-01-20T01:30:17.377Z,61.23
2019-01-20T01:32:46.252Z,50.90
2019-01-20T01:35:15.308Z,38.63
2019-01-20T01:37:43.803Z,48.67
2019-01-20T01:40:14.771Z,47.00
2019-01-20T01:42:43.541Z,50.87
2019-01-20T01:45:14.901Z,41.90
2019-01-20T01:47:43.337Z,56.67
2019-01-20T01:50:13.193Z,52.03
2019-01-20T01:52:41.624Z,46.40
2019-01-20T01:55:11.194Z,54.73
2019-01-20T01:57:39.615Z,42.40
2019-01-20T02:00:16.560Z,45.70
2019-01-20T02:02:44.983Z,47.77
2019-01-20T02:05:13.661Z,53.70
2019-01-20T02:07:42.480Z,42.90
2019-01-20T02:10:16.521Z,46.93
2019-01-20T02:12:44.967Z,47.47
2019-01-20T02:15:16.031Z,49.37
2019-01-20T02:17:44.445Z,49.90
2019-01-20T02:20:18.671Z,48.27
2019-01-20T02:22:47.695Z,50.30
2019-01-20T02:25:17.133Z,51.47
2019-01-20T02:27:45.760Z,57.50
2019-01-20T02:30:20.052Z,50.90
2019-01-20T02:32:48.637Z,58.20
2019-01-20T02:35:17.320Z,56.50
2019-01-20T02:37:45.988Z,46.10
2019-01-20T02:40:17.951Z,48.77
2019-01-20T02:42:46.768Z,51.63
2019-01-20T02:45:16.825Z,50.83
2019-01-20T02:47:45.236Z,53.70
2019-01-20T02:50:16.082Z,52.93
2019-01-20T02:52:44.492Z,53.50
2019-01-20T02:55:13.310Z,49.77
2019-01-20T02:57:41.733Z,49.77
2019-01-20T03:00:13.402Z,52.13
2019-01-20T03:02:41.812Z,52.87
2019-01-20T03:05:12.156Z,49.20
2019-01-20T03:07:40.579Z,49.67
2019-01-20T03:10:13.506Z,51.90
2019-01-20T03:12:41.925Z,48.23
2019-01-20T03:15:12.498Z,59.40
2019-01-20T03:17:40.920Z,53.27
2019-01-20T03:20:15.105Z,51.53
2019-01-20T03:22:43.524Z,59.97
2019-01-20T03:25:14.566Z,48.70
2019-01-20T03:27:43.353Z,45.93
2019-01-20T03:30:20.275Z,46.70
2019-01-20T03:32:48.807Z,49.97
2019-01-20T03:35:20.081Z,49.77
2019-01-20T03:37:48.585Z,53.03
2019-01-20T03:40:18.941Z,56.83
2019-01-20T03:42:47.423Z,50.47
2019-01-20T03:45:18.188Z,51.70
2019-01-20T03:47:46.913Z,55.37
2019-01-20T03:50:16.781Z,58.03
2019-01-20T03:52:45.755Z,52.60
2019-01-20T03:55:18.846Z,47.07
2019-01-20T03:57:47.267Z,47.43
2019-01-20T04:00:23.190Z,57.33
2019-01-20T04:02:54.078Z,54.57
2019-01-20T04:05:22.502Z,64.53
2019-01-20T04:07:51.099Z,52.17
2019-01-20T04:10:19.781Z,52.17
2019-01-20T04:12:48.227Z,59.90
2019-01-20T04:15:17.191Z,57.20
2019-01-20T04:17:45.691Z,58.50
2019-01-20T04:20:15.145Z,57.97
2019-01-20T04:22:43.664Z,52.37
2019-01-20T04:25:19.823Z,62.30
2019-01-20T04:27:48.276Z,59.23
2019-01-20T04:30:19.161Z,55.63
2019-01-20T04:32:48.175Z,50.93
2019-01-20T04:35:16.871Z,57.07
2019-01-20T04:37:45.289Z,53.93
2019-01-20T04:40:16.705Z,54.27
2019-01-20T04:42:45.129Z,53.63
2019-01-20T04:45:15.186Z,47.47
2019-01-20T04:47:43.610Z,53.00
2019-01-20T04:50:20.587Z,58.70
2019-01-20T04:52:49.094Z,56.77
2019-01-20T04:55:17.693Z,54.47
2019-01-20T04:57:50.224Z,51.67
2019-01-20T05:00:21.090Z,47.03
2019-01-20T05:02:49.515Z,57.67
2019-01-20T05:05:18.778Z,58.37
2019-01-20T05:07:47.198Z,50.87
2019-01-20T05:10:17.767Z,51.20
2019-01-20T05:12:46.779Z,48.90
2019-01-20T05:15:20.337Z,50.83
2019-01-20T05:17:48.770Z,56.10
2019-01-20T05:20:17.996Z,49.97
2019-01-20T05:22:46.406Z,57.20
2019-01-20T05:25:15.695Z,55.50
2019-01-20T05:27:44.097Z,52.13
2019-01-20T05:30:15.589Z,51.43
2019-01-20T05:32:44.003Z,47.80
2019-01-20T05:35:12.585Z,61.00
2019-01-20T05:37:40.999Z,52.43
2019-01-20T05:40:12.366Z,55.27
2019-01-20T05:42:46.137Z,55.13
2019-01-20T05:45:13.732Z,52.53
2019-01-20T05:47:42.218Z,52.23
2019-01-20T05:50:12.698Z,48.77
2019-01-20T05:52:41.133Z,51.83
2019-01-20T05:55:11.918Z,59.87
2019-01-20T05:57:40.331Z,50.40
2019-01-20T06:00:20.597Z,45.40
2019-01-20T06:02:50.112Z,43.87
2019-01-20T06:05:18.715Z,46.67
2019-01-20T06:07:47.135Z,64.10
2019-01-20T06:10:15.551Z,50.07
2019-01-20T06:12:44.124Z,57.53
2019-01-20T06:15:17.640Z,52.20
2019-01-20T06:17:46.097Z,52.53
2019-01-20T06:20:15.651Z,57.53
2019-01-20T06:22:44.336Z,56.37
2019-01-20T06:25:13.057Z,61.17
2019-01-20T06:27:41.991Z,45.10
2019-01-20T06:30:22.477Z,53.87
2019-01-20T06:32:50.979Z,46.50
2019-01-20T06:35:19.508Z,46.90
2019-01-20T06:37:47.917Z,57.87
2019-01-20T06:40:16.776Z,55.30
2019-01-20T06:42:45.301Z,57.20
2019-01-20T06:45:15.069Z,51.83
2019-01-20T06:47:43.499Z,53.33
2019-01-20T06:50:14.253Z,55.00
2019-01-20T06:52:42.676Z,49.83
2019-01-20T06:55:12.534Z,53.47
2019-01-20T06:57:41.321Z,49.17
2019-01-20T07:00:18.265Z,49.30
2019-01-20T07:02:46.684Z,52.53
2019-01-20T07:05:15.677Z,51.90
2019-01-20T07:07:44.588Z,47.13
2019-01-20T07:10:15.745Z,48.53
2019-01-20T07:12:44.535Z,49.73
2019-01-20T07:15:21.175Z,52.97
2019-01-20T07:17:49.637Z,53.93
2019-01-20T07:20:18.064Z,60.57
2019-01-20T07:22:46.477Z,48.73
2019-01-20T07:25:14.936Z,49.47
2019-01-20T07:27:43.588Z,57.47
2019-01-20T07:30:15.198Z,51.70
2019-01-20T07:32:43.625Z,48.93
2019-01-20T07:35:12.693Z,51.23
2019-01-20T07:37:41.156Z,57.50
2019-01-20T07:40:15.277Z,55.27
2019-01-20T07:42:43.704Z,45.83
2019-01-20T07:45:13.961Z,50.70
2019-01-20T07:47:42.388Z,52.23
2019-01-20T07:50:16.620Z,51.87
2019-01-20T07:52:45.177Z,47.03
2019-01-20T07:55:13.603Z,49.47
2019-01-20T07:57:42.292Z,45.97
2019-01-20T08:00:18.677Z,50.80
2019-01-20T08:02:47.121Z,47.60
2019-01-20T08:05:16.359Z,48.97
2019-01-20T08:07:44.754Z,48.97
2019-01-20T08:10:21.461Z,46.00
2019-01-20T08:12:49.892Z,46.50
2019-01-20T08:15:20.285Z,44.47
2019-01-20T08:17:48.681Z,44.00
2019-01-20T08:20:19.732Z,51.63
2019-01-20T08:22:48.499Z,43.53
2019-01-20T08:25:18.406Z,51.97
2019-01-20T08:27:46.834Z,43.90
2019-01-20T08:30:20.924Z,45.03
2019-01-20T08:32:49.340Z,44.93
2019-01-20T08:35:18.407Z,43.27
2019-01-20T08:37:47.149Z,46.73
2019-01-20T08:40:18.490Z,45.60
2019-01-20T08:42:47.016Z,43.27
2019-01-20T08:45:30.529Z,43.47
2019-01-20T08:48:02.034Z,43.87
2019-01-20T08:50:30.483Z,44.60
2019-01-20T08:53:01.902Z,53.83
2019-01-20T08:55:30.313Z,48.00
2019-01-20T08:57:58.737Z,43.13
2019-01-20T09:00:27.154Z,44.50
2019-01-20T09:02:55.567Z,45.00
2019-01-20T09:05:24.021Z,45.47
2019-01-20T09:07:53.536Z,61.77
2019-01-20T09:10:24.290Z,45.93
2019-01-20T09:12:54.568Z,45.83
2019-01-20T09:15:22.972Z,39.70
2019-01-20T09:17:51.405Z,48.33
2019-01-20T09:20:19.804Z,48.10
2019-01-20T09:22:48.253Z,40.87
2019-01-20T09:25:17.059Z,42.40
2019-01-20T09:27:45.462Z,42.27
2019-01-20T09:30:17.219Z,46.70
2019-01-20T09:32:45.800Z,45.20
2019-01-20T09:35:14.753Z,45.27
2019-01-20T09:37:43.184Z,47.50
2019-01-20T09:40:16.476Z,40.07
2019-01-20T09:42:44.888Z,47.53
2019-01-20T09:45:21.288Z,42.80
2019-01-20T09:47:49.732Z,42.70
2019-01-20T09:50:18.180Z,46.17
2019-01-20T09:52:46.624Z,45.93
2019-01-20T09:55:15.314Z,41.97
2019-01-20T09:57:45.387Z,46.83
2019-01-20T10:00:22.688Z,58.10
2019-01-20T10:02:55.485Z,46.07
2019-01-20T10:05:24.109Z,40.73
2019-01-20T10:07:52.530Z,46.20
2019-01-20T10:10:21.134Z,45.43
2019-01-20T10:12:49.538Z,46.57
2019-01-20T10:15:18.627Z,44.37
2019-01-20T10:17:47.075Z,44.33
2019-01-20T10:20:18.479Z,40.50
2019-01-20T10:22:46.965Z,57.77
2019-01-20T10:25:16.904Z,42.53
2019-01-20T10:27:45.544Z,48.03
2019-01-20T10:30:19.712Z,42.37
2019-01-20T10:32:48.324Z,44.27
2019-01-20T10:35:17.677Z,43.60
2019-01-20T10:37:46.265Z,40.73
2019-01-20T10:40:15.897Z,43.13
2019-01-20T10:42:44.372Z,52.00
2019-01-20T10:45:13.077Z,44.60
2019-01-20T10:47:43.228Z,50.67
2019-01-20T10:50:14.420Z,44.70
2019-01-20T10:52:43.007Z,40.83
2019-01-20T10:55:11.828Z,46.20
2019-01-20T10:57:40.289Z,46.60
2019-01-20T11:00:29.598Z,44.10
2019-01-20T11:02:58.381Z,47.93
2019-01-20T11:05:30.523Z,45.50
2019-01-20T11:07:57.100Z,38.80
2019-01-20T11:10:25.497Z,45.87
2019-01-20T11:12:54.043Z,53.23
2019-01-20T11:15:22.471Z,38.87
2019-01-20T11:17:50.873Z,42.07
2019-01-20T11:20:21.244Z,47.40
2019-01-20T11:22:49.674Z,42.47
2019-01-20T11:25:21.543Z,42.47
2019-01-20T11:27:50.173Z,52.07
2019-01-20T11:30:19.747Z,52.27
2019-01-20T11:32:48.445Z,46.90
2019-01-20T11:35:19.496Z,42.40
2019-01-20T11:37:48.248Z,46.70
2019-01-20T11:40:16.766Z,49.73
2019-01-20T11:42:45.227Z,45.67
2019-01-20T11:45:31.261Z,43.97
2019-01-20T11:47:59.741Z,43.77
2019-01-20T11:50:28.669Z,47.27
2019-01-20T11:52:57.139Z,41.73
2019-01-20T11:55:25.813Z,40.47
2019-01-20T11:57:54.520Z,47.07
2019-01-20T12:00:25.835Z,40.17
2019-01-20T12:02:54.412Z,44.37
2019-01-20T12:05:23.146Z,44.83
2019-01-20T12:07:51.838Z,60.70
2019-01-20T12:10:20.631Z,52.07
2019-01-20T12:12:50.748Z,39.77
2019-01-20T12:15:22.900Z,45.83
2019-01-20T12:17:51.404Z,53.13
2019-01-20T12:20:19.872Z,53.90
2019-01-20T12:22:48.321Z,55.13
2019-01-20T12:25:20.033Z,55.70
2019-01-20T12:27:48.420Z,58.50
2019-01-20T12:30:25.718Z,50.07
2019-01-20T12:32:57.317Z,46.03
2019-01-20T12:35:25.977Z,57.70
2019-01-20T12:37:54.560Z,52.90
2019-01-20T12:40:29.604Z,48.03
2019-01-20T12:42:58.397Z,55.23
2019-01-20T12:45:26.851Z,54.10
2019-01-20T12:47:55.615Z,50.30
2019-01-20T12:50:24.099Z,52.23
2019-01-20T12:52:52.506Z,49.73
2019-01-20T12:55:20.925Z,50.30
2019-01-20T12:57:49.357Z,52.87
2019-01-20T13:00:19.977Z,48.63
2019-01-20T13:02:48.928Z,48.47
2019-01-20T13:05:17.637Z,49.27
2019-01-20T13:07:46.319Z,47.73
2019-01-20T13:10:19.411Z,52.77
2019-01-20T13:12:48.103Z,53.13
2019-01-20T13:15:20.697Z,53.77
2019-01-20T13:17:49.184Z,51.23
2019-01-20T13:20:20.199Z,53.90
2019-01-20T13:22:48.995Z,52.13
2019-01-20T13:25:23.116Z,60.30
2019-01-20T13:28:10.860Z,55.37
2019-01-20T13:30:39.283Z,50.30
2019-01-20T13:33:07.711Z,54.43
2019-01-20T13:35:36.297Z,51.50
2019-01-20T13:38:11.002Z,52.90
2019-01-20T13:40:45.059Z,56.20
2019-01-20T13:43:13.757Z,51.90
2019-01-20T13:45:42.270Z,55.10
2019-01-20T13:48:11.568Z,53.27
2019-01-20T13:50:40.068Z,54.90
2019-01-20T13:53:08.503Z,51.57
2019-01-20T13:55:36.924Z,59.33
2019-01-20T13:58:05.336Z,56.90
2019-01-20T14:00:33.761Z,61.20
2019-01-20T14:03:02.213Z,63.40
2019-01-20T14:05:30.612Z,59.57
2019-01-20T14:07:59.065Z,57.97
2019-01-20T14:10:27.737Z,57.97
2019-01-20T14:12:56.181Z,64.57
2019-01-20T14:15:24.779Z,61.20
2019-01-20T14:17:53.197Z,65.13
2019-01-20T14:20:23.649Z,64.73
2019-01-20T14:22:52.354Z,57.07
2019-01-20T14:25:30.971Z,61.40
2019-01-20T14:27:59.420Z,61.77
2019-01-20T14:30:30.491Z,62.23
2019-01-20T14:32:58.957Z,57.83
2019-01-20T14:35:27.532Z,62.00
2019-01-20T14:37:55.991Z,66.03
2019-01-20T14:40:24.581Z,60.83
2019-01-20T14:42:54.543Z,61.67
2019-01-20T14:45:23.258Z,57.80
2019-01-20T14:47:53.499Z,52.50
2019-01-20T14:50:27.044Z,58.93
2019-01-20T14:52:55.538Z,54.77
2019-01-20T14:55:25.015Z,68.40
2019-01-20T14:57:53.416Z,57.20
2019-01-20T15:00:27.513Z,57.77
2019-01-20T15:02:55.948Z,54.63
2019-01-20T15:05:24.380Z,53.97
2019-01-20T15:07:53.065Z,61.27
2019-01-20T15:10:21.510Z,56.53
2019-01-20T15:12:50.363Z,65.17
2019-01-20T15:15:34.137Z,56.70
2019-01-20T15:18:02.881Z,56.07
2019-01-20T15:20:31.384Z,57.30
2019-01-20T15:22:59.844Z,59.30
2019-01-20T15:25:28.282Z,64.50
2019-01-20T15:27:56.693Z,62.30
2019-01-20T15:30:27.735Z,52.63
2019-01-20T15:32:56.985Z,61.37
2019-01-20T15:35:25.521Z,53.30
2019-01-20T15:37:53.962Z,61.40
2019-01-20T15:40:24.044Z,67.70
2019-01-20T15:42:52.544Z,66.20
2019-01-20T15:45:23.200Z,65.30
2019-01-20T15:47:52.608Z,57.77
2019-01-20T15:50:32.550Z,63.23
2019-01-20T15:53:01.989Z,65.60
2019-01-20T15:55:32.189Z,64.20
2019-01-20T15:58:00.611Z,58.77
2019-01-20T16:00:31.285Z,59.93
2019-01-20T16:03:00.076Z,63.67
2019-01-20T16:05:29.331Z,68.90
2019-01-20T16:07:58.092Z,62.20
2019-01-20T16:10:26.509Z,65.77
2019-01-20T16:12:55.396Z,56.63
2019-01-20T16:15:32.626Z,55.80
2019-01-20T16:18:01.037Z,57.30
2019-01-20T16:20:31.188Z,66.13
2019-01-20T16:22:59.616Z,55.03
2019-01-20T16:25:30.799Z,64.83
2019-01-20T16:27:59.210Z,54.27
2019-01-20T16:30:30.473Z,65.67
2019-01-20T16:32:58.952Z,60.03
2019-01-20T16:35:28.873Z,68.03
2019-01-20T16:37:59.218Z,72.73
2019-01-20T16:40:27.827Z,65.47
2019-01-20T16:42:56.237Z,72.17
2019-01-20T16:45:42.123Z,62.50
2019-01-20T16:48:07.308Z,76.23
2019-01-20T16:50:35.881Z,71.73
2019-01-20T16:53:06.253Z,69.33
2019-01-20T16:55:34.676Z,75.07
2019-01-20T16:58:03.261Z,61.83
2019-01-20T17:00:34.879Z,64.33
2019-01-20T17:03:03.531Z,76.07
2019-01-20T17:05:32.029Z,73.63
2019-01-20T17:08:00.547Z,66.67
2019-01-20T17:10:31.693Z,74.40
2019-01-20T17:13:01.773Z,72.70
2019-01-20T17:15:39.485Z,66.83
2019-01-20T17:18:03.253Z,58.30
2019-01-20T17:20:31.669Z,75.87
2019-01-20T17:23:00.176Z,70.80
2019-01-20T17:25:28.702Z,71.10
2019-01-20T17:27:57.231Z,75.33
2019-01-20T17:30:28.677Z,70.00
2019-01-20T17:32:57.130Z,68.00
2019-01-20T17:35:25.628Z,74.23
2019-01-20T17:37:54.110Z,71.30
2019-01-20T17:40:27.334Z,69.33
2019-01-20T17:42:56.548Z,78.33
2019-01-20T17:45:33.209Z,75.00
2019-01-20T17:48:02.788Z,78.87
2019-01-20T17:50:33.794Z,78.70
2019-01-20T17:53:02.398Z,71.67
2019-01-20T17:55:30.850Z,80.80
2019-01-20T17:57:59.321Z,75.57
2019-01-20T18:00:38.320Z,82.20
2019-01-20T18:03:08.153Z,74.20
2019-01-20T18:05:37.125Z,69.67
2019-01-20T18:08:05.857Z,75.10
2019-01-20T18:10:34.594Z,78.90
2019-01-20T18:13:02.995Z,69.30
2019-01-20T18:15:31.464Z,77.30
2019-01-20T18:17:59.903Z,77.80
2019-01-20T18:20:33.684Z,69.20
2019-01-20T18:23:02.372Z,75.07
2019-01-20T18:25:30.899Z,75.83
2019-01-20T18:27:59.380Z,79.57
2019-01-20T18:30:30.237Z,74.37
2019-01-20T18:32:59.174Z,73.50
2019-01-20T18:35:28.460Z,85.50
2019-01-20T18:37:58.394Z,76.87
2019-01-20T18:40:28.004Z,71.90
2019-01-20T18:42:57.071Z,75.77
2019-01-20T18:45:30.921Z,66.83
2019-01-20T18:47:59.341Z,82.73
2019-01-20T18:50:32.894Z,72.00
2019-01-20T18:53:01.663Z,77.13
2019-01-20T18:55:30.127Z,83.37
2019-01-20T18:57:58.572Z,69.53
2019-01-20T19:00:38.373Z,70.73
2019-01-20T19:03:07.083Z,78.63
2019-01-20T19:05:35.493Z,85.90
2019-01-20T19:08:04.377Z,72.50
2019-01-20T19:10:33.389Z,87.77
2019-01-20T19:13:01.903Z,86.10
2019-01-20T19:15:30.368Z,79.53
2019-01-20T19:17:58.786Z,85.10
2019-01-20T19:20:27.539Z,87.47
2019-01-20T19:22:57.697Z,76.40
2019-01-20T19:25:26.773Z,75.70
2019-01-20T19:27:55.213Z,90.13
2019-01-20T19:30:33.390Z,75.50
2019-01-20T19:33:02.320Z,83.87
2019-01-20T19:35:31.912Z,88.33
2019-01-20T19:38:00.324Z,85.97
2019-01-20T19:40:28.737Z,101.60
2019-01-20T19:42:57.430Z,80.47
2019-01-20T19:45:25.870Z,84.93
2019-01-20T19:47:54.538Z,82.37
2019-01-20T19:50:23.193Z,78.23
2019-01-20T19:52:51.614Z,83.30
2019-01-20T19:55:28.514Z,93.30
2019-01-20T19:57:58.526Z,79.17
2019-01-20T20:00:29.482Z,83.13
2019-01-20T20:02:57.902Z,77.93
2019-01-20T20:05:26.616Z,76.17
2019-01-20T20:07:56.169Z,84.60
2019-01-20T20:10:26.417Z,79.83
2019-01-20T20:12:56.281Z,74.60
2019-01-20T20:15:27.784Z,65.67
2019-01-20T20:17:58.060Z,68.70
2019-01-20T20:20:26.752Z,60.20
2019-01-20T20:22:55.287Z,66.93
2019-01-20T20:25:25.240Z,66.43
2019-01-20T20:27:54.315Z,82.70
2019-01-20T20:30:27.872Z,73.80
2019-01-20T20:32:56.557Z,67.03
2019-01-20T20:35:24.977Z,72.03
2019-01-20T20:37:53.420Z,71.43
2019-01-20T20:40:22.009Z,113.00
2019-01-20T20:42:50.508Z,117.63
2019-01-20T20:45:22.129Z,89.37
2019-01-20T20:47:50.548Z,78.43
2019-01-20T20:50:19.240Z,73.83
2019-01-20T20:52:48.211Z,73.40
2019-01-20T20:55:16.638Z,73.93
2019-01-20T20:57:45.185Z,66.73
2019-01-20T21:00:19.552Z,76.40
2019-01-20T21:02:47.966Z,76.43
2019-01-20T21:05:16.648Z,75.40
2019-01-20T21:07:45.229Z,71.20
2019-01-20T21:10:18.219Z,76.50
2019-01-20T21:12:46.763Z,82.33
2019-01-20T21:15:16.509Z,75.63
2019-01-20T21:17:48.432Z,78.63
2019-01-20T21:20:23.060Z,79.83
2019-01-20T21:22:51.637Z,86.80
2019-01-20T21:25:20.114Z,80.13
2019-01-20T21:27:48.526Z,82.20
2019-01-20T21:30:26.222Z,78.00
2019-01-20T21:32:55.880Z,88.63
2019-01-20T21:35:24.299Z,81.53
2019-01-20T21:37:52.703Z,73.67
2019-01-20T21:40:22.065Z,81.60
2019-01-20T21:42:50.752Z,75.87
2019-01-20T21:45:19.561Z,82.40
2019-01-20T21:47:48.045Z,95.70
2019-01-20T21:50:19.463Z,78.77
2019-01-20T21:52:48.316Z,86.53
2019-01-20T21:55:16.752Z,88.10
2019-01-20T21:57:45.437Z,65.67
2019-01-20T22:00:17.133Z,82.40
2019-01-20T22:02:45.553Z,74.57
2019-01-20T22:05:14.045Z,80.00
2019-01-20T22:07:42.496Z,77.83
2019-01-20T22:10:16.079Z,73.30
2019-01-20T22:12:44.543Z,72.83
2019-01-20T22:15:14.447Z,79.70
2019-01-20T22:17:43.143Z,79.53
2019-01-20T22:20:13.899Z,81.00
2019-01-20T22:22:42.951Z,85.00
2019-01-20T22:25:13.920Z,89.17
2019-01-20T22:27:42.872Z,77.20
2019-01-20T22:30:14.521Z,75.70
2019-01-20T22:32:42.942Z,74.03
2019-01-20T22:35:12.789Z,85.27
2019-01-20T22:37:41.661Z,73.07
2019-01-20T22:40:19.023Z,74.50
2019-01-20T22:42:47.517Z,73.47
2019-01-20T22:45:21.351Z,74.13
2019-01-20T22:47:49.790Z,79.17
2019-01-20T22:50:18.796Z,73.33
2019-01-20T22:52:47.272Z,78.10
2019-01-20T22:55:17.308Z,88.50
2019-01-20T22:57:45.741Z,86.10
2019-01-20T23:00:26.368Z,75.37
2019-01-20T23:02:54.781Z,94.93
2019-01-20T23:05:23.192Z,82.47
2019-01-20T23:07:51.612Z,79.30
2019-01-20T23:10:20.107Z,81.87
2019-01-20T23:12:48.520Z,83.20
2019-01-20T23:15:16.928Z,83.60
2019-01-20T23:17:45.355Z,77.70
2019-01-20T23:20:18.039Z,76.97
2019-01-20T23:22:46.533Z,81.37
2019-01-20T23:25:14.957Z,80.17
2019-01-20T23:27:43.463Z,77.97
2019-01-20T23:30:14.935Z,74.37
2019-01-20T23:32:43.360Z,79.80
2019-01-20T23:35:12.048Z,85.93
2019-01-20T23:37:40.465Z,78.60
2019-01-20T23:40:11.836Z,71.33
2019-01-20T23:42:40.553Z,84.47
2019-01-20T23:45:11.313Z,76.70
2019-01-20T23:47:39.723Z,80.40
2019-01-20T23:50:14.484Z,88.50
2019-01-20T23:52:42.986Z,72.30
2019-01-20T23:55:12.876Z,80.43
2019-01-20T23:57:41.295Z,80.70
